Time;durP1;ratioP1;P1;durP2;ratioP2;P2;SDS_P1;SDS_P2;PMS_P1;PMS_P2;Temp;Humidity;BMP_temperature;BMP_pressure;BME280_temperature;BME280_humidity;BME280_pressure;Samples;Min_cycle;Max_cycle;Signal;HPM_P1;HPM_P2
2022/02/01 00:01:17;;;;;;;14.70;2.20;;;;;;;2.20;100.00;101999.78;5096402;28;20365;-54
2022/02/01 00:03:48;;;;;;;17.85;2.75;;;;;;;2.15;100.00;102001.56;5096234;28;20044;-55
2022/02/01 00:06:22;;;;;;;15.45;2.58;;;;;;;2.14;100.00;101994.66;5095974;28;20044;-57
2022/02/01 00:08:59;;;;;;;14.60;1.92;;;;;;;2.06;100.00;101986.13;5095928;28;20391;-55
2022/02/01 00:11:36;;;;;;;15.80;1.92;;;;;;;2.11;100.00;102005.06;5096097;28;20052;-55
2022/02/01 00:14:15;;;;;;;11.38;1.83;;;;;;;2.11;100.00;102010.25;5095478;28;20637;-55
2022/02/01 00:17:03;;;;;;;9.60;1.60;;;;;;;2.08;100.00;102023.28;5095771;28;20040;-56
2022/02/01 00:19:51;;;;;;;14.75;1.52;;;;;;;2.08;100.00;102012.03;5095921;28;20119;-55
2022/02/01 00:33:56;;;;;;;12.85;1.90;;;;;;;2.08;100.00;102018.09;5095281;28;20055;-54
2022/02/01 00:36:31;;;;;;;11.38;2.28;;;;;;;2.04;100.00;102013.81;5095175;28;20131;-55
2022/02/01 00:39:02;;;;;;;16.08;2.10;;;;;;;2.03;100.00;102014.66;5095279;28;20123;-54
2022/02/01 00:41:32;;;;;;;14.05;2.88;;;;;;;1.96;100.00;102005.25;5095032;28;20086;-54
2022/02/01 00:44:02;;;;;;;13.73;2.13;;;;;;;1.96;100.00;102021.66;5095358;28;20131;-54
2022/02/01 00:46:32;;;;;;;14.93;1.80;;;;;;;1.95;100.00;102013.91;5095086;28;20504;-54
2022/02/01 00:49:00;;;;;;;13.93;2.28;;;;;;;1.95;100.00;102006.09;5095381;28;20044;-55
2022/02/01 00:51:28;;;;;;;17.52;1.75;;;;;;;1.95;100.00;102007.00;5095273;28;20048;-53
2022/02/01 00:53:56;;;;;;;13.50;2.28;;;;;;;2.00;100.00;102001.72;5095306;28;20052;-55
2022/02/01 00:56:25;;;;;;;10.98;2.20;;;;;;;2.01;100.00;102008.66;5095437;28;20402;-57
2022/02/01 00:58:53;;;;;;;14.23;2.25;;;;;;;2.01;100.00;102003.47;5095090;28;20050;-54
2022/02/01 01:01:21;;;;;;;12.90;2.17;;;;;;;2.03;100.00;102007.75;5095063;28;20044;-55
2022/02/01 01:03:51;;;;;;;10.10;1.40;;;;;;;2.01;100.00;101982.69;5095049;28;20131;-55
2022/02/01 01:06:19;;;;;;;11.60;1.90;;;;;;;2.03;100.00;101967.97;5094867;28;20062;-55
2022/02/01 01:08:48;;;;;;;11.98;1.63;;;;;;;2.03;100.00;101961.03;5094708;28;20505;-56
2022/02/01 01:11:16;;;;;;;9.40;1.67;;;;;;;2.07;100.00;101961.84;5094841;28;20040;-57
2022/02/01 01:17:03;;;;;;;15.48;1.77;;;;;;;2.03;100.00;101970.56;5063893;28;20105;-56
2022/02/01 01:43:30;;;;;;;11.48;1.83;;;;;;;1.98;100.00;101998.31;5094483;28;20044;-54
2022/02/01 01:44:29;;;;;;;17.25;2.33;;;;;;;2.06;100.00;101998.22;5094247;28;20052;-55
2022/02/01 01:55:30;;;;;;;14.88;3.13;;;;;;;2.04;100.00;102000.81;5031422;28;20061;-48
2022/02/01 01:57:58;;;;;;;10.60;2.55;;;;;;;2.08;100.00;101999.91;5031288;28;20046;-45
2022/02/01 02:00:40;;;;;;;13.60;1.67;;;;;;;2.12;100.00;101996.41;5059428;28;20056;-48
2022/02/01 02:03:08;;;;;;;14.37;2.23;;;;;;;2.10;100.00;102000.78;5093953;28;20043;-46
2022/02/01 02:05:37;;;;;;;19.50;2.22;;;;;;;2.09;100.00;101991.25;5093626;28;20135;-49
2022/02/01 02:08:06;;;;;;;7.47;1.77;;;;;;;2.13;100.00;101987.75;5093744;28;20032;-46
2022/02/01 02:10:40;;;;;;;15.80;2.05;;;;;;;2.20;100.00;101983.34;5093853;28;20048;-47
2022/02/01 02:15:58;;;;;;;8.98;1.73;;;;;;;2.18;100.00;102008.44;5093750;28;20502;-47
2022/02/01 02:18:29;;;;;;;9.48;1.80;;;;;;;2.20;100.00;102010.16;5093420;28;20101;-47
2022/02/01 02:20:59;;;;;;;10.57;1.70;;;;;;;2.26;100.00;102009.22;5093146;28;20500;-45
2022/02/01 02:23:28;;;;;;;7.50;1.92;;;;;;;2.24;100.00;101989.38;5093388;28;20048;-47
2022/02/01 02:25:56;;;;;;;19.95;1.83;;;;;;;2.26;100.00;101990.19;5092029;28;20083;-47
2022/02/01 02:28:25;;;;;;;14.57;2.22;;;;;;;2.26;100.00;101982.41;5093357;28;20109;-47
2022/02/01 02:30:54;;;;;;;11.32;1.65;;;;;;;2.24;100.00;101982.44;5093518;28;20050;-45
2022/02/01 02:33:22;;;;;;;9.80;2.45;;;;;;;2.26;100.00;101995.38;5093568;28;20082;-46
2022/02/01 02:35:55;;;;;;;11.20;2.20;;;;;;;2.24;100.00;101991.97;5093588;28;20067;-45
2022/02/01 02:38:35;;;;;;;10.90;1.90;;;;;;;2.25;100.00;101983.28;5093314;28;20478;-46
2022/02/01 02:46:39;;;;;;;12.40;1.48;;;;;;;2.28;100.00;101970.28;5093178;28;20044;-47
2022/02/01 02:49:08;;;;;;;10.05;1.35;;;;;;;2.32;100.00;101972.81;5093228;28;20485;-47
2022/02/01 02:51:36;;;;;;;10.23;1.73;;;;;;;2.34;100.00;101965.00;5093094;28;20498;-49
2022/02/01 02:54:08;;;;;;;12.02;2.20;;;;;;;2.34;100.00;101965.00;5092425;28;20082;-48
2022/02/01 02:56:36;;;;;;;9.60;2.67;;;;;;;2.38;100.00;101948.50;5092475;28;20047;-49
2022/02/01 02:59:05;;;;;;;10.35;1.13;;;;;;;2.42;100.00;101962.31;5092736;28;20048;-45
2022/02/01 03:01:33;;;;;;;14.43;1.40;;;;;;;2.41;100.00;101970.97;5092840;28;20044;-45
2022/02/01 03:04:01;;;;;;;15.02;1.70;;;;;;;2.37;100.00;101962.34;5092762;28;20048;-45
2022/02/01 03:06:29;;;;;;;12.68;1.60;;;;;;;2.40;100.00;101959.75;5092825;28;20451;-48
2022/02/01 03:08:57;;;;;;;8.23;1.00;;;;;;;2.38;100.00;101958.88;5092751;28;20511;-46
2022/02/01 03:11:27;;;;;;;7.78;1.40;;;;;;;2.38;100.00;101950.25;5092974;28;20044;-47
2022/02/01 03:13:58;;;;;;;11.02;1.65;;;;;;;2.44;100.00;101940.63;5093123;28;20537;-49
2022/02/01 03:16:35;;;;;;;8.95;1.48;;;;;;;2.40;100.00;101938.97;5092707;28;20051;-48
2022/02/01 03:21:49;;;;;;;9.98;1.38;;;;;;;2.39;100.00;101931.16;5107820;28;20063;-50
2022/02/01 03:24:17;;;;;;;9.90;1.13;;;;;;;2.40;100.00;101936.38;5092381;28;20036;-48
2022/02/01 03:26:47;;;;;;;10.35;1.55;;;;;;;2.42;100.00;101916.41;5092655;28;20382;-49
2022/02/01 03:29:15;;;;;;;11.35;1.48;;;;;;;2.45;100.00;101918.97;5092444;28;20056;-47
2022/02/01 03:31:43;;;;;;;7.28;1.52;;;;;;;2.43;100.00;101918.16;5092512;28;20531;-47
2022/02/01 03:34:11;;;;;;;17.27;1.58;;;;;;;2.47;100.00;101895.59;5092458;28;20048;-48
2022/02/01 03:36:39;;;;;;;8.65;1.90;;;;;;;2.50;100.00;101886.00;5092491;28;20071;-49
2022/02/01 03:39:07;;;;;;;11.60;1.70;;;;;;;2.50;100.00;101888.59;5092528;28;20408;-50
2022/02/01 03:41:37;;;;;;;7.57;1.25;;;;;;;2.56;100.00;101898.03;5092135;28;20044;-49
2022/02/01 03:44:07;;;;;;;10.75;2.05;;;;;;;2.49;100.00;101897.25;5092684;28;20112;-47
2022/02/01 03:46:35;;;;;;;10.18;1.52;;;;;;;2.48;100.00;101892.97;5092271;28;20055;-50
2022/02/01 03:49:04;;;;;;;11.60;1.40;;;;;;;2.49;100.00;101888.63;5092294;28;20044;-50
2022/02/01 03:51:32;;;;;;;14.65;1.50;;;;;;;2.49;100.00;101892.06;5091998;28;20049;-46
2022/02/01 03:54:00;;;;;;;12.05;1.73;;;;;;;2.53;100.00;101893.75;5092211;28;20059;-46
2022/02/01 03:56:28;;;;;;;9.38;1.60;;;;;;;2.54;100.00;101892.88;5092349;28;20048;-46
2022/02/01 03:58:56;;;;;;;10.88;1.30;;;;;;;2.56;100.00;101877.25;5092539;28;20188;-47
2022/02/01 04:01:28;;;;;;;12.00;2.15;;;;;;;2.58;100.00;101869.44;5092346;28;20582;-48
2022/02/01 04:03:58;;;;;;;8.95;1.40;;;;;;;2.61;100.00;101870.25;5092121;28;20115;-47
2022/02/01 04:06:26;;;;;;;9.20;1.55;;;;;;;2.62;100.00;101878.91;5092586;28;20063;-48
2022/02/01 04:08:54;;;;;;;13.85;1.92;;;;;;;2.58;100.00;101875.50;5091997;28;20036;-47
2022/02/01 04:11:22;;;;;;;13.48;1.70;;;;;;;2.58;100.00;101872.91;5090787;28;20040;-52
2022/02/01 04:13:50;;;;;;;14.75;1.98;;;;;;;2.57;100.00;101873.78;5092169;28;20048;-50
2022/02/01 04:16:18;;;;;;;7.07;1.60;;;;;;;2.56;100.00;101866.88;5107215;28;20054;-48
2022/02/01 04:18:48;;;;;;;9.25;1.55;;;;;;;2.63;100.00;101868.50;5091319;28;20040;-45
2022/02/01 04:21:16;;;;;;;11.55;2.47;;;;;;;2.63;100.00;101855.53;5091767;28;20036;-51
2022/02/01 04:23:44;;;;;;;13.65;2.00;;;;;;;2.65;100.00;101850.31;5091993;28;20051;-47
2022/02/01 04:26:12;;;;;;;11.00;2.42;;;;;;;2.62;100.00;101861.59;5091823;28;20044;-44
2022/02/01 04:28:40;;;;;;;4.75;1.30;;;;;;;2.63;100.00;101868.50;5092004;28;20083;-47
2022/02/01 04:31:08;;;;;;;11.48;1.75;;;;;;;2.61;100.00;101869.41;5092030;28;20440;-45
2022/02/01 04:33:37;;;;;;;10.02;1.58;;;;;;;2.61;100.00;101870.25;5091569;28;20055;-44
2022/02/01 04:36:07;;;;;;;9.13;1.30;;;;;;;2.61;100.00;101872.84;5092021;28;20117;-55
2022/02/01 04:38:38;;;;;;;14.40;1.52;;;;;;;2.63;100.00;101875.44;5091830;28;20048;-54
2022/02/01 04:41:06;;;;;;;8.93;2.08;;;;;;;2.70;100.00;101879.66;5091865;28;20067;-55
2022/02/01 04:43:36;;;;;;;12.40;1.73;;;;;;;2.60;100.00;101873.72;5093862;28;20378;-54
2022/02/01 04:46:04;;;;;;;9.60;1.45;;;;;;;2.63;100.00;101868.50;5095415;28;20048;-56
2022/02/01 04:48:33;;;;;;;10.40;1.80;;;;;;;2.60;100.00;101870.28;5093776;28;20048;-54
2022/02/01 04:51:01;;;;;;;14.38;2.28;;;;;;;2.59;100.00;101864.25;5095305;28;20059;-54
2022/02/01 04:53:30;;;;;;;6.93;1.52;;;;;;;2.63;100.00;101857.25;5094031;28;20048;-57
2022/02/01 04:55:58;;;;;;;8.60;1.60;;;;;;;2.63;100.00;101846.84;5095198;28;20052;-55
2022/02/01 04:58:27;;;;;;;7.95;1.35;;;;;;;2.63;100.00;101858.13;5095292;28;20044;-55
2022/02/01 05:00:55;;;;;;;12.52;1.95;;;;;;;2.65;100.00;101843.34;5095116;28;20052;-55
2022/02/01 05:03:23;;;;;;;12.57;1.85;;;;;;;2.66;100.00;101839.03;5095107;28;20387;-55
2022/02/01 05:05:52;;;;;;;9.85;1.95;;;;;;;2.70;100.00;101832.91;5095173;28;20542;-56
2022/02/01 05:08:20;;;;;;;11.38;2.47;;;;;;;2.68;100.00;101822.50;5094807;28;20047;-54
2022/02/01 05:10:49;;;;;;;11.55;1.73;;;;;;;2.69;100.00;101798.25;5094936;28;20048;-53
2022/02/01 05:16:04;;;;;;;14.02;2.08;;;;;;;2.61;100.00;101766.38;5093109;28;20051;-55
2022/02/01 05:18:42;;;;;;;9.73;3.13;;;;;;;2.69;100.00;101763.63;5095016;28;20040;-56
2022/02/01 05:21:13;;;;;;;14.40;2.22;;;;;;;2.69;100.00;101768.84;5094684;28;20049;-54
2022/02/01 05:23:42;;;;;;;19.42;2.58;;;;;;;2.68;100.00;101764.53;5094606;28;20044;-56
2022/02/01 05:26:11;;;;;;;10.25;2.33;;;;;;;2.70;100.00;101758.41;5094786;28;20044;-56
2022/02/01 05:28:41;;;;;;;15.02;2.22;;;;;;;2.71;100.00;101754.06;5094497;28;20054;-55
2022/02/01 05:31:10;;;;;;;13.45;1.85;;;;;;;2.72;100.00;101739.34;5094610;28;20040;-58
2022/02/01 05:33:38;;;;;;;7.53;1.65;;;;;;;2.63;100.00;101738.63;5094518;28;20060;-56
2022/02/01 05:36:08;;;;;;;10.07;2.45;;;;;;;2.64;100.00;101726.50;5095082;28;20048;-54
2022/02/01 05:38:36;;;;;;;11.90;1.80;;;;;;;2.65;100.00;101723.03;5095502;28;20105;-54
2022/02/01 05:41:06;;;;;;;11.43;2.08;;;;;;;2.70;100.00;101729.00;5114534;28;20528;-54
2022/02/01 05:43:37;;;;;;;12.20;2.92;;;;;;;2.64;100.00;101726.50;5092297;28;20044;-54
2022/02/01 05:46:05;;;;;;;10.68;2.22;;;;;;;2.63;100.00;101743.84;5093314;28;20052;-54
2022/02/01 05:48:33;;;;;;;9.73;2.25;;;;;;;2.63;100.00;101742.97;5087211;28;20059;-57
2022/02/01 05:51:01;;;;;;;10.43;2.25;;;;;;;2.67;100.00;101753.28;5089195;28;20039;-57
2022/02/01 05:53:29;;;;;;;13.98;2.25;;;;;;;2.65;100.00;101760.22;5093757;28;20055;-55
2022/02/01 05:55:57;;;;;;;9.73;2.35;;;;;;;2.68;100.00;101743.75;5093519;28;20127;-56
2022/02/01 05:58:26;;;;;;;7.75;2.15;;;;;;;2.64;100.00;101737.72;5101984;28;20043;-53
2022/02/01 06:00:56;;;;;;;11.00;2.38;;;;;;;2.66;100.00;101716.94;5094732;28;20498;-55
2022/02/01 06:03:24;;;;;;;10.55;2.72;;;;;;;2.67;100.00;101716.03;5093911;28;20506;-56
2022/02/01 06:05:52;;;;;;;9.20;2.05;;;;;;;2.65;100.00;101716.06;5093649;28;20085;-58
2022/02/01 06:08:20;;;;;;;12.30;2.40;;;;;;;2.73;100.00;101705.56;5093951;28;20051;-57
2022/02/01 06:10:48;;;;;;;12.05;2.30;;;;;;;2.77;100.00;101704.59;5093664;28;20063;-56
2022/02/01 06:13:17;;;;;;;10.88;2.35;;;;;;;2.76;100.00;101708.09;5093643;28;20097;-56
2022/02/01 06:15:45;;;;;;;11.93;2.30;;;;;;;2.77;100.00;101704.59;5093627;28;20048;-56
2022/02/01 06:18:15;;;;;;;10.48;1.92;;;;;;;2.79;100.00;101707.16;5094099;28;20530;-56
2022/02/01 06:20:43;;;;;;;16.60;2.63;;;;;;;2.78;100.00;101703.72;5093552;28;20032;-57
2022/02/01 06:23:14;;;;;;;11.05;2.55;;;;;;;2.85;100.00;101707.03;5093319;28;20085;-56
2022/02/01 06:25:49;;;;;;;8.63;2.13;;;;;;;2.82;100.00;101707.09;5092113;28;20056;-56
2022/02/01 06:28:18;;;;;;;15.43;2.38;;;;;;;2.84;100.00;101695.81;5093279;28;20044;-56
2022/02/01 06:30:47;;;;;;;10.00;2.13;;;;;;;2.80;100.00;101688.94;5093325;28;20054;-54
2022/02/01 06:33:17;;;;;;;16.70;3.03;;;;;;;2.79;100.00;101684.63;5093289;28;20040;-56
2022/02/01 06:35:46;;;;;;;9.07;2.40;;;;;;;2.84;100.00;101681.97;5093613;28;20410;-57
2022/02/01 06:38:15;;;;;;;15.40;2.75;;;;;;;2.82;100.00;101678.53;5093141;28;20126;-57
2022/02/01 06:40:46;;;;;;;10.10;1.95;;;;;;;2.91;100.00;101672.31;5093544;28;20544;-56
2022/02/01 06:43:15;;;;;;;11.75;2.30;;;;;;;2.84;100.00;101667.22;5093236;28;20056;-56
2022/02/01 06:45:43;;;;;;;13.73;3.03;;;;;;;2.91;100.00;101664.50;5093283;28;20135;-55
2022/02/01 06:48:13;;;;;;;12.50;2.85;;;;;;;2.92;100.00;101658.41;5092995;28;20064;-57
2022/02/01 06:50:47;;;;;;;11.80;2.70;;;;;;;2.95;100.00;101666.16;5091532;28;20048;-56
2022/02/01 06:53:16;;;;;;;16.85;3.67;;;;;;;2.97;100.00;101665.25;5092909;28;20449;-54
2022/02/01 06:55:56;;;;;;;9.77;2.53;;;;;;;2.99;100.00;101662.63;5092468;28;20052;-54
2022/02/01 06:58:25;;;;;;;8.15;2.60;;;;;;;3.00;100.00;101670.38;5092774;28;20052;-54
2022/02/01 07:00:53;;;;;;;12.38;3.70;;;;;;;3.03;100.00;101649.50;5093064;28;20048;-55
2022/02/01 07:03:21;;;;;;;12.15;3.42;;;;;;;3.00;100.00;101649.59;5092885;28;20113;-56
2022/02/01 07:05:51;;;;;;;15.55;3.10;;;;;;;3.06;100.00;101659.00;5092514;28;20079;-56
2022/02/01 07:08:19;;;;;;;15.88;3.72;;;;;;;3.06;100.00;101643.41;5093190;28;20546;-56
2022/02/01 07:10:47;;;;;;;13.15;3.63;;;;;;;3.04;100.00;101639.97;5092730;28;20398;-55
2022/02/01 07:13:16;;;;;;;9.10;3.13;;;;;;;3.07;100.00;101647.72;5093110;28;20051;-55
2022/02/01 07:15:44;;;;;;;20.73;3.67;;;;;;;3.08;100.00;101645.97;5092952;28;20094;-54
2022/02/01 07:18:13;;;;;;;14.05;4.35;;;;;;;3.09;100.00;101643.31;5091479;28;20048;-55
2022/02/01 07:20:41;;;;;;;19.63;5.05;;;;;;;3.03;100.00;101639.13;5092760;28;20047;-56
2022/02/01 07:23:12;;;;;;;21.13;4.43;;;;;;;3.09;100.00;101632.94;5092749;28;20498;-55
2022/02/01 07:25:47;;;;;;;23.00;5.53;;;;;;;3.09;100.00;101621.69;5092314;28;20540;-56
2022/02/01 07:28:17;;;;;;;17.85;5.85;;;;;;;3.07;100.00;101624.31;5092333;28;20395;-55
2022/02/01 07:30:45;;;;;;;19.08;6.40;;;;;;;3.08;100.00;101630.38;5092462;28;20055;-55
2022/02/01 07:33:14;;;;;;;17.35;5.80;;;;;;;3.11;100.00;101618.19;5092566;28;20040;-55
2022/02/01 07:35:44;;;;;;;17.88;6.10;;;;;;;3.14;100.00;101620.69;5092382;28;20052;-55
2022/02/01 07:38:17;;;;;;;18.92;6.20;;;;;;;3.18;100.00;101605.91;5092534;28;20036;-55
2022/02/01 07:40:46;;;;;;;18.25;7.75;;;;;;;3.07;100.00;101605.25;5092547;28;20048;-55
2022/02/01 07:43:15;;;;;;;20.75;8.48;;;;;;;3.12;100.00;101596.50;5092261;28;20093;-52
2022/02/01 07:45:45;;;;;;;18.58;7.85;;;;;;;3.10;100.00;101595.66;5092249;28;20104;-54
2022/02/01 07:48:15;;;;;;;19.20;8.55;;;;;;;3.08;100.00;101588.78;5092095;28;20055;-55
2022/02/01 07:50:43;;;;;;;22.60;9.05;;;;;;;3.10;100.00;101589.63;5092183;28;20113;-54
2022/02/01 07:53:13;;;;;;;26.02;9.25;;;;;;;3.12;100.00;101580.03;5092397;28;20043;-55
2022/02/01 07:55:41;;;;;;;24.33;10.63;;;;;;;3.16;100.00;101581.66;5092248;28;20055;-54
2022/02/01 07:58:09;;;;;;;27.95;11.25;;;;;;;3.19;100.00;101574.66;5092146;28;20904;-55
2022/02/01 08:00:38;;;;;;;24.52;11.05;;;;;;;3.16;100.00;101566.06;5092427;28;20093;-54
2022/02/01 08:03:06;;;;;;;23.85;11.15;;;;;;;3.17;100.00;101571.22;5092490;28;20498;-56
2022/02/01 08:05:34;;;;;;;21.45;11.52;;;;;;;3.22;100.00;101563.34;5092180;28;20419;-55
2022/02/01 08:08:07;;;;;;;;;;;;;;;3.22;100.00;101571.16;5092721;28;20498;-53
2022/02/01 08:10:43;;;;;;;28.67;12.65;;;;;;;3.22;100.00;101545.16;5092138;28;20306;-56
2022/02/01 08:21:52;;;;;;;32.55;15.45;;;;;;;3.25;100.00;101526.88;5088256;28;20406;-53
2022/02/01 08:24:20;;;;;;;32.65;16.35;;;;;;;3.29;100.00;101522.47;5095789;28;20048;-55
2022/02/01 08:26:50;;;;;;;29.63;16.45;;;;;;;3.37;100.00;101530.94;5095675;28;20044;-56
2022/02/01 08:29:18;;;;;;;33.17;17.15;;;;;;;3.35;100.00;101517.97;5095974;28;20044;-55
2022/02/01 08:31:48;;;;;;;34.10;18.23;;;;;;;3.44;100.00;101514.28;5095418;28;20381;-55
2022/02/01 08:34:17;;;;;;;33.90;17.58;;;;;;;3.42;100.00;101510.84;5095876;28;20048;-54
2022/02/01 08:36:45;;;;;;;36.25;17.05;;;;;;;3.45;100.00;101500.38;5094312;28;20059;-55
2022/02/01 08:39:13;;;;;;;39.33;19.17;;;;;;;3.43;100.00;101486.56;5091073;28;20060;-53
2022/02/01 08:41:43;;;;;;;33.25;17.35;;;;;;;3.51;100.00;101489.81;5091955;28;20040;-56
2022/02/01 08:44:14;;;;;;;34.05;17.08;;;;;;;3.60;100.00;101491.34;5094501;28;20101;-54
2022/02/01 08:46:43;;;;;;;29.27;16.95;;;;;;;3.58;100.00;101481.88;5093899;28;20059;-54
2022/02/01 08:49:12;;;;;;;27.77;15.93;;;;;;;3.58;100.00;101469.72;5089646;28;20056;-55
2022/02/01 08:51:43;;;;;;;34.25;17.17;;;;;;;3.69;100.00;101459.03;5093931;28;20486;-54
2022/02/01 08:54:17;;;;;;;29.02;16.58;;;;;;;3.62;100.00;101457.47;5094615;28;20075;-53
2022/02/01 08:59:33;;;;;;;33.60;16.58;;;;;;;3.67;100.00;101429.59;5098557;28;20043;-56
2022/02/01 09:02:01;;;;;;;37.88;17.25;;;;;;;3.67;100.00;101421.81;5095444;28;20504;-57
2022/02/01 09:04:30;;;;;;;30.33;16.58;;;;;;;3.72;100.00;101414.69;5094735;28;20130;-56
2022/02/01 09:06:58;;;;;;;29.48;15.80;;;;;;;3.74;100.00;101402.53;5095235;28;20564;-57
2022/02/01 09:09:29;;;;;;;34.03;18.23;;;;;;;3.77;100.00;101417.19;5094286;28;20482;-54
2022/02/01 09:11:57;;;;;;;31.65;16.98;;;;;;;3.84;100.00;101393.53;5090123;28;20055;-54
2022/02/01 09:14:25;;;;;;;30.40;16.90;;;;;;;3.80;100.00;101378.91;5088621;28;20052;-56
2022/02/01 09:16:55;;;;;;;28.42;16.23;;;;;;;3.80;100.00;101370.28;5097035;28;20054;-56
2022/02/01 09:19:23;;;;;;;32.90;16.33;;;;;;;3.84;100.00;101370.13;5094769;28;20101;-57
2022/02/01 09:21:52;;;;;;;29.92;16.60;;;;;;;3.83;100.00;101351.97;5092766;28;20044;-55
2022/02/01 09:24:21;;;;;;;30.15;15.63;;;;;;;3.86;100.00;101350.13;5094973;28;20039;-55
2022/02/01 09:26:49;;;;;;;28.85;15.88;;;;;;;3.93;100.00;101349.94;5094896;28;20055;-56
2022/02/01 09:29:21;;;;;;;29.50;16.95;;;;;;;3.87;100.00;101343.16;5091270;28;20059;-56
2022/02/01 09:31:50;;;;;;;27.85;16.10;;;;;;;3.95;100.00;101333.38;5091418;28;20040;-56
2022/02/01 09:34:20;;;;;;;28.08;15.48;;;;;;;3.97;100.00;101325.56;5093548;28;20044;-56
2022/02/01 09:36:50;;;;;;;29.55;15.55;;;;;;;4.00;100.00;101312.44;5094418;28;20040;-57
2022/02/01 09:39:18;;;;;;;29.17;16.17;;;;;;;3.99;100.00;101301.16;5093817;28;20051;-56
2022/02/01 09:41:47;;;;;;;28.35;15.95;;;;;;;4.10;100.00;101308.63;5090253;28;20052;-56
2022/02/01 09:44:16;;;;;;;30.60;15.02;;;;;;;4.11;100.00;101314.72;5094166;28;20076;-54
2022/02/01 09:46:46;;;;;;;26.95;13.45;;;;;;;4.12;100.00;101308.59;5094761;28;20070;-55
2022/02/01 09:49:16;;;;;;;25.50;14.13;;;;;;;4.12;100.00;101298.19;5094238;28;20494;-56
2022/02/01 09:51:46;;;;;;;26.80;14.95;;;;;;;4.13;100.00;101295.56;5092851;28;20097;-55
2022/02/01 09:54:21;;;;;;;24.98;14.00;;;;;;;4.20;100.00;101291.84;5089138;28;20052;-57
2022/02/01 09:56:51;;;;;;;26.88;14.15;;;;;;;4.22;100.00;101282.22;5089477;28;20047;-55
2022/02/01 09:59:22;;;;;;;26.77;15.02;;;;;;;4.23;100.00;101285.69;5093496;28;20074;-55
2022/02/01 10:01:55;;;;;;;21.52;11.98;;;;;;;4.30;100.00;101300.22;5097008;28;20055;-56
2022/02/01 10:04:28;;;;;;;21.23;12.00;;;;;;;4.31;100.00;101299.31;5093904;28;20062;-56
2022/02/01 10:07:08;;;;;;;21.63;13.05;;;;;;;4.31;100.00;101307.13;5095034;28;20044;-55
2022/02/01 10:09:47;;;;;;;20.80;12.18;;;;;;;4.36;100.00;101288.75;5109321;28;20055;-55
2022/02/01 10:12:16;;;;;;;21.63;12.25;;;;;;;4.42;100.00;101288.56;5110853;28;20456;-55
2022/02/01 10:14:52;;;;;;;20.88;11.80;;;;;;;4.43;100.00;101292.00;5114076;28;20043;-55
2022/02/01 10:17:37;;;;;;;20.40;10.95;;;;;;;4.47;100.00;101283.19;5112848;28;20058;-56
2022/02/01 10:20:06;;;;;;;19.27;10.57;;;;;;;4.46;100.00;101284.97;5113990;28;20513;-55
2022/02/01 10:22:37;;;;;;;17.75;10.48;;;;;;;4.52;100.00;101276.09;5113944;28;20044;-54
2022/02/01 10:25:19;;;;;;;16.35;9.50;;;;;;;4.55;100.00;101276.84;5113829;28;20040;-53
2022/02/01 10:27:53;;;;;;;18.70;9.98;;;;;;;4.62;100.00;101282.72;5114004;28;20524;-55
2022/02/01 10:30:45;;;;;;;16.30;9.00;;;;;;;4.66;100.00;101267.81;5113825;28;20036;-56
2022/02/01 10:33:31;;;;;;;15.15;8.32;;;;;;;4.68;100.00;101273.84;5113548;28;20113;-54
2022/02/01 10:35:59;;;;;;;17.13;9.30;;;;;;;4.65;100.00;101261.75;5113779;28;20054;-57
2022/02/01 10:38:35;;;;;;;14.38;7.90;;;;;;;4.76;100.00;101261.41;5113462;28;20093;-55
2022/02/01 10:41:04;;;;;;;14.20;8.05;;;;;;;4.77;100.00;101270.06;5113452;28;20043;-56
2022/02/01 10:43:34;;;;;;;16.80;7.68;;;;;;;4.81;100.00;101251.63;5111794;28;20088;-55
2022/02/01 10:46:07;;;;;;;16.27;7.75;;;;;;;4.82;100.00;101257.72;5110043;28;20089;-56
2022/02/01 10:48:36;;;;;;;15.02;7.68;;;;;;;4.85;100.00;101268.03;5112421;28;20083;-53
2022/02/01 10:51:07;;;;;;;14.70;7.28;;;;;;;4.91;100.00;101257.41;5109521;28;20051;-55
2022/02/01 10:53:37;;;;;;;14.25;7.38;;;;;;;4.99;100.00;101231.91;5109923;28;20040;-56
2022/02/01 10:56:08;;;;;;;13.70;7.15;;;;;;;5.02;100.00;101223.97;5113251;28;20424;-55
2022/02/01 10:58:37;;;;;;;13.00;6.57;;;;;;;5.06;100.00;101217.75;5113252;28;20058;-55
2022/02/01 11:01:06;;;;;;;12.45;6.72;;;;;;;5.04;100.00;101222.16;5110592;28;20052;-57
2022/02/01 11:03:40;;;;;;;15.50;7.50;;;;;;;5.06;100.00;101225.56;5108712;28;20142;-55
2022/02/01 11:06:10;;;;;;;14.40;7.30;;;;;;;5.14;100.00;101232.25;5112686;28;20092;-54
2022/02/01 11:08:41;;;;;;;12.98;7.00;;;;;;;5.19;100.00;101233.78;5112929;28;20047;-55
2022/02/01 11:11:19;;;;;;;12.38;6.78;;;;;;;5.28;100.00;101230.00;5113034;28;20068;-55
2022/02/01 11:13:49;;;;;;;14.30;7.30;;;;;;;5.31;100.00;101223.84;5112849;28;20383;-56
2022/02/01 11:16:20;;;;;;;13.52;6.57;;;;;;;5.30;100.00;101209.09;5112935;28;20055;-55
2022/02/01 11:18:57;;;;;;;12.32;6.50;;;;;;;5.33;100.00;101207.22;5112949;28;20462;-55
2022/02/01 11:21:26;;;;;;;11.80;6.53;;;;;;;5.36;100.00;101199.28;5112809;28;20054;-55
2022/02/01 11:24:00;;;;;;;12.48;6.38;;;;;;;5.39;100.00;101188.72;5112863;28;20093;-54
2022/02/01 11:26:35;;;;;;;11.73;5.95;;;;;;;5.40;100.00;101184.38;5112772;28;20056;-55
2022/02/01 11:31:57;;;;;;;9.93;5.65;;;;;;;5.47;100.00;101177.13;5110785;28;20051;-54
2022/02/01 11:34:28;;;;;;;10.48;5.90;;;;;;;5.52;100.00;101175.22;5112520;28;20050;-55
2022/02/01 11:36:58;;;;;;;11.45;6.38;;;;;;;5.55;100.00;101162.91;5110988;28;20050;-47
2022/02/01 11:39:27;;;;;;;9.73;5.75;;;;;;;5.65;100.00;101133.84;5112414;28;20039;-47
2022/02/01 11:41:57;;;;;;;9.00;5.28;;;;;;;5.64;100.00;101145.19;5109647;28;20051;-54
2022/02/01 11:44:28;;;;;;;10.10;4.97;;;;;;;5.72;100.00;101150.94;5109014;28;20050;-53
2022/02/01 11:47:09;;;;;;;8.70;4.93;;;;;;;5.71;100.00;101144.03;5111194;28;20075;-55
2022/02/01 11:49:50;;;;;;;9.63;4.90;;;;;;;5.79;100.00;101131.50;5112580;28;20048;-55
2022/02/01 11:52:18;;;;;;;11.35;4.93;;;;;;;5.83;100.00;101122.63;5113015;28;20049;-55
2022/02/01 11:54:49;;;;;;;9.68;5.10;;;;;;;5.91;100.00;101122.34;5116884;27;20047;-54
2022/02/01 11:57:19;;;;;;;8.23;4.80;;;;;;;5.92;100.00;101119.66;5116731;28;20513;-56
2022/02/01 11:59:55;;;;;;;8.05;4.32;;;;;;;6.00;100.00;101124.59;5116670;28;20134;-54
2022/02/01 12:02:30;;;;;;;9.15;4.90;;;;;;;6.02;100.00;101121.94;5116818;28;20648;-56
2022/02/01 12:05:10;;;;;;;8.68;4.88;;;;;;;6.10;100.00;101127.69;5116623;28;20048;-53
2022/02/01 12:07:43;;;;;;;10.10;5.13;;;;;;;6.12;100.00;101118.00;5116608;28;20050;-55
2022/02/01 12:10:15;;;;;;;9.43;4.55;;;;;;;6.21;100.00;101108.94;5116457;28;20456;-55
2022/02/01 12:12:43;;;;;;;8.07;4.53;;;;;;;6.20;100.00;101104.63;5116468;28;20387;-55
2022/02/01 12:15:11;;;;;;;8.48;5.22;;;;;;;6.20;100.00;101095.06;5115408;28;20057;-56
2022/02/01 12:17:44;;;;;;;11.27;5.07;;;;;;;6.24;100.00;101094.00;5116477;28;20092;-54
2022/02/01 12:20:17;;;;;;;10.95;5.57;;;;;;;6.30;100.00;101084.19;5116376;27;20027;-56
2022/02/01 12:23:10;;;;;;;10.75;5.47;;;;;;;6.33;100.00;101082.28;5115932;27;20047;-55
2022/02/01 12:25:39;;;;;;;;;;;;;;;6.39;100.00;101078.56;5109948;28;20048;-54
2022/02/01 12:28:15;;;;;;;9.88;6.20;;;;;;;6.42;100.00;101084.50;5113462;28;19966;-55
2022/02/01 12:30:51;;;;;;;12.73;6.15;;;;;;;6.42;100.00;101075.81;5116183;28;20414;-56
2022/02/01 12:33:26;;;;;;;12.98;6.90;;;;;;;6.47;100.00;101071.22;5115714;28;20065;-54
2022/02/01 12:35:57;;;;;;;12.23;6.93;;;;;;;6.47;100.00;101073.84;5115701;28;20075;-55
2022/02/01 12:38:28;;;;;;;13.95;7.47;;;;;;;6.50;100.00;101065.03;5116086;28;20044;-56
2022/02/01 12:41:03;;;;;;;13.73;7.70;;;;;;;6.54;100.00;101077.03;5113241;28;20052;-54
2022/02/01 12:43:43;;;;;;;17.52;7.95;;;;;;;6.63;100.00;101055.72;5111985;28;20047;-56
2022/02/01 12:46:30;;;;;;;16.63;7.93;;;;;;;6.71;100.00;101052.78;5114777;28;20043;-55